D/T METAR WX W/DIR W/SPE G/SPE TEMP DEWP
16/01/19 03:50 EGPL 160350Z AUTO 25011KT 7000 -RA BKN005/// BKN015/// BKN026/// 05/03 Q0993 RERA -RA WSW (250°) 12.7mph 5°C 3°C
16/01/19 03:20 EGPL 160320Z AUTO 25009KT 6000 -RA SCT005/// BKN018/// BKN030/// 06/04 Q0994 -RA WSW (250°) 10.4mph 6°C 4°C
16/01/19 02:50 EGPL 160250Z AUTO 21005KT 7000 -RA SCT004/// OVC028/// 06/03 Q0994 RERA -RA SSW (210°) 5.8mph 6°C 3°C
16/01/19 02:20 EGPL 160220Z AUTO 22006KT 4000 RA SCT005/// BKN017/// BKN026/// 07/03 Q0994 RA SW (220°) 6.9mph 7°C 3°C
16/01/19 01:50 EGPL 160150Z AUTO 26006KT 9999 BKN036/// 08/04 Q0994 W (260°) 6.9mph 8°C 4°C
16/01/19 01:20 EGPL 160120Z AUTO 28006KT 9999 SCT034/// BKN043/// 08/04 Q0994 W (280°) 6.9mph 8°C 4°C
16/01/19 00:50 EGPL 160050Z AUTO 28009KT 9999 SCT023/// BKN032/// 08/05 Q0995 W (280°) 10.4mph 8°C 5°C
15/01/19 23:50 EGPL 152350Z AUTO 27012KT 9999 SCT021/// 08/05 Q0995 W (270°) 13.8mph 8°C 5°C
15/01/19 23:20 EGPL 152320Z AUTO 28014KT 9999 FEW019/// 08/05 Q0995 W (280°) 16.1mph 8°C 5°C
15/01/19 22:50 EGPL 152250Z AUTO 27015KT 9999 SCT022/// 08/05 Q0996 W (270°) 17.3mph 8°C 5°C
15/01/19 22:20 EGPL 152220Z AUTO 27014KT 9999 SCT016/// BKN029/// BKN045/// 07/06 Q0996 W (270°) 16.1mph 7°C 6°C
15/01/19 21:50 EGPL 152150Z AUTO 26016KT 9999 FEW017/// SCT023/// BKN037/// 08/06 Q0996 W (260°) 18.4mph 8°C 6°C
15/01/19 21:20 EGPL 152120Z AUTO 27020KT 9999 SCT015/// BKN022/// 08/06 Q0996 W (270°) 23.0mph 8°C 6°C
15/01/19 20:50 EGPL 152050Z AUTO 27022KT 9999 SCT016/// BKN024/// 08/06 Q0996 W (270°) 25.3mph 8°C 6°C
15/01/19 20:20 EGPL 152020Z AUTO 24025KT 7000 -RA BKN012/// BKN020/// OVC037/// 10/08 Q0995 -RA WSW (240°) 28.8mph 10°C 8°C
15/01/19 19:50 EGPL 151950Z AUTO 22023KT 9999 BKN012/// 10/09 Q0995 SW (220°) 26.5mph 10°C 9°C
15/01/19 19:20 EGPL 151920Z AUTO 22025KT 9999 SCT007/// BKN010/// BKN014/// 10/09 Q0996 SW (220°) 28.8mph 10°C 9°C
15/01/19 18:50 EGPL 151850Z AUTO 22027G37KT 9999 BKN005/// OVC014/// 10/09 Q0996 RERA SW (220°) 31.1mph 42.6mph 10°C 9°C
15/01/19 18:20 EGPL 151820Z AUTO 21025KT 8000 -RA OVC004/// 09/09 Q0996 RERA -RA SSW (210°) 28.8mph 9°C 9°C
15/01/19 17:50 EGPL 151750Z AUTO 21025KT 6000 OVC004/// 09/08 Q0997 RERA SSW (210°) 28.8mph 9°C 8°C
15/01/19 17:20 EGPL 151720Z 21023KT 9999 VCSH FEW008 BKN012 09/08 Q0997 VCSH SSW (210°) 26.5mph 9°C 8°C
15/01/19 16:50 EGPL 151650Z 21024KT 9999 VCSH FEW008 BKN012 09/08 Q0998 VCSH SSW (210°) 27.6mph 9°C 8°C
15/01/19 16:20 EGPL 151620Z 21021KT 9999 VCSH SCT018 BKN022 10/07 Q0999 VCSH SSW (210°) 24.2mph 10°C 7°C
15/01/19 15:50 EGPL 151550Z 21019KT 9999 VCSH SCT016 BKN040 09/07 Q0999 VCSH SSW (210°) 21.9mph 9°C 7°C
15/01/19 15:20 EGPL 151520Z 22020KT 9999 VCSH SCT016 BKN040 09/07 Q1000 VCSH SW (220°) 23.0mph 9°C 7°C
15/01/19 14:50 EGPL 151450Z 22019KT 9999 VCSH SCT014 BKN030 09/07 Q1000 VCSH SW (220°) 21.9mph 9°C 7°C
15/01/19 14:20 EGPL 151420Z 22022KT 9999 VCSH FEW005 SCT012 BKN034 09/07 Q1001 VCSH SW (220°) 25.3mph 9°C 7°C
15/01/19 13:50 EGPL 151350Z 22022KT 9999 VCSH FEW010 SCT018 10/07 Q1001 VCSH SW (220°) 25.3mph 10°C 7°C
15/01/19 13:20 EGPL 151320Z 23024KT 9999 VCSH FEW010 SCT018 10/08 Q1002 VCSH SW (230°) 27.6mph 10°C 8°C
15/01/19 12:50 EGPL 151250Z 23023KT 7000 -RA FEW004 SCT006 BKN012 10/08 Q1003 -RA SW (230°) 26.5mph 10°C 8°C
15/01/19 12:20 EGPL 151220Z 23024KT 7000 -RA FEW004 SCT006 BKN012 10/09 Q1003 -RA SW (230°) 27.6mph 10°C 9°C
15/01/19 11:50 EGPL 151150Z 22017KT 9000 -RA FEW004 SCT006 BKN013 09/09 Q1003 -RA SW (220°) 19.6mph 9°C 9°C
15/01/19 11:20 EGPL 151120Z 19010KT 9000 -RA FEW004 SCT006 BKN009 08/08 Q1004 -RA S (190°) 11.5mph 8°C 8°C
15/01/19 10:50 EGPL 151050Z 19007KT 5000 -RA SCT003 BKN004 08/08 Q1004 -RA S (190°) 8.1mph 8°C 8°C
15/01/19 10:20 EGPL 151020Z 19007KT 4500 -RADZ BR SCT004 BKN005 08/07 Q1005 -RA -DZ BR S (190°) 8.1mph 8°C 7°C
15/01/19 09:50 EGPL 150950Z 19005KT 4000 -RADZ BR SCT006 08/07 Q1005 -RA -DZ BR S (190°) 5.8mph 8°C 7°C
15/01/19 09:20 EGPL 150920Z 19004KT 4000 -RADZ BR SCT004 BKN008 BKN014 08/07 Q1005 -RA -DZ BR S (190°) 4.6mph 8°C 7°C
15/01/19 08:50 EGPL 150850Z 24004KT 210V270 8000 -RADZ BKN004 BKN034 07/07 Q1006 -RA -DZ WSW (240°) 4.6mph 7°C 7°C
15/01/19 08:20 EGPL 150820Z 23005KT 2500 RADZ BKN005 BKN034 07/07 Q1006 RA DZ SW (230°) 5.8mph 7°C 7°C
15/01/19 07:50 EGPL 150750Z 27006KT 4500 RADZ SCT005 BKN034 07/07 Q1006 RA DZ W (270°) 6.9mph 7°C 7°C
15/01/19 07:20 EGPL 150720Z AUTO 27006KT 3800 RA BKN005/// OVC024/// 08/07 Q1006 RA W (270°) 6.9mph 8°C 7°C
15/01/19 06:50 EGPL 150650Z AUTO 25007KT 5000 -RA FEW006/// SCT019/// OVC032/// 08/07 Q1006 RERA -RA WSW (250°) 8.1mph 8°C 7°C
15/01/19 06:20 EGPL 150620Z AUTO 25008KT 6000 -RA SCT005/// BKN018/// OVC032/// 08/07 Q1007 RERA -RA WSW (250°) 9.2mph 8°C 7°C
15/01/19 05:20 EGPL 150520Z AUTO 28007KT 4000 RA BKN005/// BKN009/// 08/08 Q1007 RA W (280°) 8.1mph 8°C 8°C
15/01/19 04:50 EGPL 150450Z AUTO 27010KT 7000 -RA SCT005/// BKN013/// BKN029/// 09/08 Q1007 RERA -RA W (270°) 11.5mph 9°C 8°C
15/01/19 03:50 EGPL 150350Z AUTO 26009KT 9999 SCT008/// BKN017/// BKN025/// 09/08 Q1008 REDZ W (260°) 10.4mph 9°C 8°C
15/01/19 03:20 EGPL 150320Z AUTO 27010KT 9999 FEW006/// SCT010/// BKN019/// 09/08 Q1008 W (270°) 11.5mph 9°C 8°C
15/01/19 02:50 EGPL 150250Z AUTO 28014KT 3700 -DZ BKN005/// OVC022/// 09/08 Q1008 RERA -DZ W (280°) 16.1mph 9°C 8°C
15/01/19 02:20 EGPL 150220Z AUTO 25018KT 9999 BKN009/// BKN014/// 10/09 Q1008 WSW (250°) 20.7mph 10°C 9°C
15/01/19 01:50 EGPL 150150Z AUTO 25020KT 9999 BKN007/// OVC013/// 10/09 Q1008 WSW (250°) 23.0mph 10°C 9°C
15/01/19 01:20 EGPL 150120Z AUTO 25019KT 9999 OVC006/// 10/09 Q1008 WSW (250°) 21.9mph 10°C 9°C
15/01/19 00:50 EGPL 150050Z AUTO 25020KT 9999 BKN004/// BKN009/// 10/09 Q1008 RERA WSW (250°) 23.0mph 10°C 9°C
15/01/19 00:20 EGPL 150020Z AUTO 25020KT 3100 RA OVC003/// 10/09 Q1009 REDZ RA WSW (250°) 23.0mph 10°C 9°C
14/01/19 23:50 EGPL 142350Z AUTO 24021KT 7000 OVC003/// 10/09 Q1009 RERA WSW (240°) 24.2mph 10°C 9°C
14/01/19 23:20 EGPL 142320Z AUTO 23020KT 5000 -RA OVC003/// 10/09 Q1009 RERA -RA SW (230°) 23.0mph 10°C 9°C
14/01/19 22:50 EGPL 142250Z AUTO 23020KT 4000 -RA OVC004/// 10/09 Q1009 RERA -RA SW (230°) 23.0mph 10°C 9°C
14/01/19 22:20 EGPL 142220Z AUTO 23019KT 3200 RA BKN004/// OVC010/// 10/09 Q1009 RA SW (230°) 21.9mph 10°C 9°C
14/01/19 21:50 EGPL 142150Z AUTO 23019KT 9999 OVC010/// 10/08 Q1010 SW (230°) 21.9mph 10°C 8°C
14/01/19 21:20 EGPL 142120Z AUTO 22017KT 9999 BKN008/// OVC014/// 09/08 Q1010 SW (220°) 19.6mph 9°C 8°C
14/01/19 20:50 EGPL 142050Z AUTO 23017KT 9999 BKN006/// BKN010/// OVC044/// 09/08 Q1010 SW (230°) 19.6mph 9°C 8°C
14/01/19 20:20 EGPL 142020Z AUTO 24018KT 9999 SCT006/// SCT010/// BKN016/// 09/08 Q1011 WSW (240°) 20.7mph 9°C 8°C
14/01/19 19:50 EGPL 141950Z AUTO 24017KT 9999 FEW005/// SCT023/// BKN040/// 09/08 Q1011 RERA WSW (240°) 19.6mph 9°C 8°C
14/01/19 19:20 EGPL 141920Z AUTO 24016KT 9999 -RA FEW007/// BKN012/// BKN019/// 09/08 Q1011 -RA WSW (240°) 18.4mph 9°C 8°C
14/01/19 18:50 EGPL 141850Z AUTO 24016KT 9999 BKN014/// BKN041/// 09/08 Q1012 WSW (240°) 18.4mph 9°C 8°C
14/01/19 18:20 EGPL 141820Z AUTO 24015KT 9999 FEW010/// SCT042/// 09/08 Q1012 WSW (240°) 17.3mph 9°C 8°C
14/01/19 17:50 EGPL 141750Z AUTO 23015KT 9999 BKN004/// OVC009/// 08/08 Q1012 REDZ SW (230°) 17.3mph 8°C 8°C
14/01/19 17:20 EGPL 141720Z 22014KT 9999 -RA SCT008 BKN018 09/07 Q1013 -RA SW (220°) 16.1mph 9°C 7°C
14/01/19 16:50 EGPL 141650Z 22014KT 9999 VCSH SCT010 BKN028 08/07 Q1013 VCSH SW (220°) 16.1mph 8°C 7°C
14/01/19 16:20 EGPL 141620Z 22012KT 9999 VCSH SCT006 BKN010 BKN018 08/07 Q1013 VCSH SW (220°) 13.8mph 8°C 7°C
14/01/19 15:50 EGPL 141550Z 22013KT 9999 VCSH FEW005 BKN010 08/06 Q1014 VCSH SW (220°) 15.0mph 8°C 6°C
14/01/19 15:20 EGPL 141520Z 22012KT 9999 VCSH FEW005 SCT012 BKN021 08/06 Q1014 VCSH SW (220°) 13.8mph 8°C 6°C
14/01/19 14:50 EGPL 141450Z 23012KT 9999 VCSH FEW012 SCT018 BKN026 08/06 Q1015 VCSH SW (230°) 13.8mph 8°C 6°C
14/01/19 14:20 EGPL 141420Z 24013KT 9999 FEW016 BKN030 08/05 Q1015 WSW (240°) 15.0mph 8°C 5°C
14/01/19 13:20 EGPL 141320Z 25009KT 9999 VCSH FEW016 BKN040 08/05 Q1016 VCSH WSW (250°) 10.4mph 8°C 5°C
14/01/19 12:50 EGPL 141250Z 25011KT 9999 VCSH FEW019 SCT031 07/05 Q1016 VCSH WSW (250°) 12.7mph 7°C 5°C
14/01/19 12:20 EGPL 141220Z 28008KT 9999 VCSH FEW014 BKN025 08/05 Q1017 VCSH W (280°) 9.2mph 8°C 5°C
14/01/19 11:20 EGPL 141120Z 28010KT 9999 FEW014 08/04 Q1017 W (280°) 11.5mph 8°C 4°C
14/01/19 10:50 EGPL 141050Z 28011KT 9999 FEW012 07/04 Q1017 W (280°) 12.7mph 7°C 4°C
14/01/19 10:20 EGPL 141020Z 29011KT 9999 FEW012 07/03 Q1017 WNW (290°) 12.7mph 7°C 3°C
14/01/19 09:50 EGPL 140950Z 31011KT 9999 VCSH FEW012 BKN022 07/05 Q1017 VCSH NW (310°) 12.7mph 7°C 5°C
14/01/19 09:20 EGPL 140920Z 28013KT 9999 VCSH FEW012 BKN024 07/04 Q1017 VCSH W (280°) 15.0mph 7°C 4°C
14/01/19 08:50 EGPL 140850Z 29011KT 9999 VCSH FEW011 SCT036 07/05 Q1017 VCSH WNW (290°) 12.7mph 7°C 5°C
14/01/19 08:20 EGPL 140820Z 28012KT 9999 -SHRA FEW005 SCT011 BKN023 06/05 Q1017 -SHRA W (280°) 13.8mph 6°C 5°C
14/01/19 07:50 EGPL 140750Z 21002KT 9999 -SHRA SCT013 BKN022 05/04 Q1017 -SHRA SSW (210°) 2.3mph 5°C 4°C
14/01/19 07:20 EGPL 140720Z 19003KT 9999 -SHRA SCT019 BKN026 04/03 Q1017 -SHRA S (190°) 3.5mph 4°C 3°C
14/01/19 06:50 EGPL 140650Z AUTO 18003KT 9999 BKN022/// BKN039/// 04/03 Q1017 S (180°) 3.5mph 4°C 3°C
14/01/19 06:20 EGPL 140620Z AUTO 16002KT 9999 BKN048/// 03/02 Q1017 SSE (160°) 2.3mph 3°C 2°C
14/01/19 05:50 EGPL 140550Z AUTO 19002KT 9999 NCD 04/03 Q1017 S (190°) 2.3mph 4°C 3°C
14/01/19 05:20 EGPL 140520Z AUTO 00000KT 9999 NCD 04/03 Q1017 N (0°) 4°C 3°C
14/01/19 04:50 EGPL 140450Z AUTO VRB01KT 9999 SCT022/// SCT028/// 04/03 Q1017 N (0°) 1.2mph 4°C 3°C
14/01/19 04:20 EGPL 140420Z AUTO 00000KT 9999 NCD 04/03 Q1017 N (0°) 4°C 3°C
14/01/19 03:50 EGPL 140350Z AUTO 00000KT 9999 SCT027/// SCT036/// 04/03 Q1017 N (0°) 4°C 3°C
14/01/19 03:20 EGPL 140320Z AUTO 05002KT 9999 OVC027/// 04/03 Q1016 NE (50°) 2.3mph 4°C 3°C
14/01/19 02:50 EGPL 140250Z AUTO 00000KT 9999 BKN033/// BKN040/// 04/03 Q1016 N (0°) 4°C 3°C
14/01/19 02:20 EGPL 140220Z AUTO 36002KT 9999 FEW012/// SCT037/// BKN045/// 04/02 Q1016 N (360°) 2.3mph 4°C 2°C
14/01/19 01:20 EGPL 140120Z AUTO 32013KT 9999 FEW023/// BKN040/// 07/04 Q1015 NW (320°) 15.0mph 7°C 4°C
14/01/19 00:50 EGPL 140050Z AUTO 30016KT 9999 FEW026/// 07/03 Q1015 WNW (300°) 18.4mph 7°C 3°C
14/01/19 00:20 EGPL 140020Z AUTO 31017KT 9999 FEW030/// 08/03 Q1015 NW (310°) 19.6mph 8°C 3°C
13/01/19 23:50 EGPL 132350Z AUTO 31019KT 9999 NCD 08/03 Q1014 NW (310°) 21.9mph 8°C 3°C
13/01/19 23:20 EGPL 132320Z AUTO 31018KT 9999 FEW028/// 08/03 Q1014 NW (310°) 20.7mph 8°C 3°C
13/01/19 22:50 EGPL 132250Z AUTO 31018KT 9999 FEW026/// 08/03 Q1013 NW (310°) 20.7mph 8°C 3°C
13/01/19 22:20 EGPL 132220Z AUTO 31021KT 9999 FEW024/// SCT033/// 08/04 Q1013 NW (310°) 24.2mph 8°C 4°C
13/01/19 21:50 EGPL 132150Z AUTO 31021KT 9999 FEW004/// SCT028/// BKN033/// 07/04 Q1013 RERA NW (310°) 24.2mph 7°C 4°C
13/01/19 21:20 EGPL 132120Z AUTO 31023KT 9999 FEW020/// SCT037/// BKN043/// 07/04 Q1012 RERA NW (310°) 26.5mph 7°C 4°C
13/01/19 20:50 EGPL 132050Z AUTO 31022KT 9999 FEW036/// 08/04 Q1012 NW (310°) 25.3mph 8°C 4°C
13/01/19 20:20 EGPL 132020Z AUTO 31024KT 9999 SCT026/// 08/03 Q1012 NW (310°) 27.6mph 8°C 3°C
13/01/19 19:50 EGPL 131950Z AUTO 32022KT 9999 FEW019/// SCT025/// BKN030/// 08/05 Q1011 NW (320°) 25.3mph 8°C 5°C
13/01/19 19:20 EGPL 131920Z AUTO 32018G28KT 9999 SCT024/// BKN031/// 08/05 Q1010 NW (320°) 20.7mph 32.2mph 8°C 5°C
13/01/19 18:50 EGPL 131850Z AUTO 31023KT 9999 FEW009/// SCT036/// 08/05 Q1010 NW (310°) 26.5mph 8°C 5°C
13/01/19 18:20 EGPL 131820Z AUTO 32023G35KT 9999 FEW027/// SCT034/// BKN042/// 08/04 Q1009 NW (320°) 26.5mph 40.3mph 8°C 4°C
13/01/19 17:50 EGPL 131750Z AUTO 30025G36KT 9999 FEW021/// SCT028/// 08/05 Q1009 WNW (300°) 28.8mph 41.4mph 8°C 5°C
13/01/19 17:20 EGPL 131720Z AUTO 31029KT 9999 SCT025/// BKN031/// BKN040/// 08/05 Q1008 NW (310°) 33.4mph 8°C 5°C
13/01/19 16:50 EGPL 131650Z AUTO 31025G38KT 9999 BKN024/// BKN033/// 08/05 Q1008 NW (310°) 28.8mph 43.7mph 8°C 5°C
13/01/19 16:20 EGPL 131620Z 30029G40KT 9999 VCSH SCT024 BKN030 08/05 Q1007 VCSH WNW (300°) 33.4mph 46.0mph 8°C 5°C
13/01/19 15:50 EGPL 131550Z 30025KT 9999 VCSH FEW018CB SCT027 07/05 Q1007 VCSH WNW (300°) 28.8mph 7°C 5°C
13/01/19 15:20 EGPL 131520Z 29030G43KT 9999 VCSH FEW018 BKN030 08/05 Q1007 VCSH WNW (290°) 34.5mph 49.5mph 8°C 5°C
13/01/19 14:50 EGPL 131450Z 30025G36KT 9999 VCSH FEW012 BKN030 08/04 Q1007 VCSH WNW (300°) 28.8mph 41.4mph 8°C 4°C
13/01/19 14:20 EGPL 131420Z 29024KT 9999 VCSH FEW009 BKN030 08/05 Q1007 RERA VCSH WNW (290°) 27.6mph 8°C 5°C
13/01/19 13:50 EGPL 131350Z AUTO 29028G41KT 9999 -RA FEW004/// SCT021/// BKN036/// 08/05 Q1007 RERA -RA WNW (290°) 32.2mph 47.2mph 8°C 5°C
13/01/19 13:20 EGPL 131320Z AUTO 29025KT 9999 FEW026/// SCT033/// 08/05 Q1007 WNW (290°) 28.8mph 8°C 5°C
13/01/19 12:50 EGPL 131250Z AUTO 29027G37KT 9999 SCT027/// SCT039/// 08/05 Q1007 WNW (290°) 31.1mph 42.6mph 8°C 5°C
13/01/19 12:20 EGPL 131220Z AUTO 29026G36KT 9999 FEW043/// 08/04 Q1007 WNW (290°) 29.9mph 41.4mph 8°C 4°C
13/01/19 11:50 EGPL 131150Z AUTO 29025KT 9999 FEW024/// SCT044/// 08/05 Q1007 WNW (290°) 28.8mph 8°C 5°C
13/01/19 11:20 EGPL 131120Z AUTO 30026G43KT 9999 FEW018/// SCT024/// BKN032/// 08/05 Q1007 RERA WNW (300°) 29.9mph 49.5mph 8°C 5°C
13/01/19 10:50 EGPL 131050Z AUTO 29023KT 9999 FEW026/// SCT039/// 09/05 Q1007 WNW (290°) 26.5mph 9°C 5°C
13/01/19 10:20 EGPL 131020Z AUTO 29023G34KT 9999 FEW028/// SCT034/// 08/05 Q1007 WNW (290°) 26.5mph 39.1mph 8°C 5°C
13/01/19 09:50 EGPL 130950Z AUTO 29023KT 9999 FEW028/// BKN032/// BKN045/// 08/05 Q1007 WNW (290°) 26.5mph 8°C 5°C
13/01/19 09:20 EGPL 130920Z AUTO 28022KT 9999 FEW026/// SCT031/// 08/06 Q1007 RERA W (280°) 25.3mph 8°C 6°C
13/01/19 08:50 EGPL 130850Z AUTO 30025G40KT 9999 -RA FEW023/// SCT030/// BKN038/// 09/05 Q1007 -RA WNW (300°) 28.8mph 46.0mph 9°C 5°C
13/01/19 08:20 EGPL 130820Z AUTO 30028G38KT 9999 FEW026/// SCT034/// BKN045/// 09/05 Q1006 WNW (300°) 32.2mph 43.7mph 9°C 5°C
13/01/19 07:50 EGPL 130750Z AUTO 29026KT 9999 NCD 09/05 Q1006 WNW (290°) 29.9mph 9°C 5°C
13/01/19 07:20 EGPL 130720Z AUTO 29028KT 9999 SCT025/// SCT033/// BKN049/// 09/05 Q1006 WNW (290°) 32.2mph 9°C 5°C
13/01/19 06:50 EGPL 130650Z AUTO 28027G37KT 9999 BKN046/// 09/05 Q1006 W (280°) 31.1mph 42.6mph 9°C 5°C
13/01/19 06:20 EGPL 130620Z AUTO 29026KT 9999 FEW028/// SCT035/// BKN041/// 09/06 Q1006 WNW (290°) 29.9mph 9°C 6°C
13/01/19 05:50 EGPL 130550Z AUTO 29026G37KT 9999 FEW020/// SCT026/// BKN034/// 09/06 Q1006 WNW (290°) 29.9mph 42.6mph 9°C 6°C
13/01/19 05:20 EGPL 130520Z AUTO 28026KT 9999 FEW017/// SCT025/// OVC032/// 10/07 Q1006 W (280°) 29.9mph 10°C 7°C
13/01/19 04:50 EGPL 130450Z AUTO 28029G39KT 9999 BKN020/// OVC027/// 09/07 Q1007 W (280°) 33.4mph 44.9mph 9°C 7°C
13/01/19 04:20 EGPL 130420Z AUTO 27030G42KT 9999 BKN014/// OVC021/// 10/08 Q1007 W (270°) 34.5mph 48.3mph 10°C 8°C
13/01/19 03:50 EGPL 130350Z AUTO 27028KT 9999 BKN012/// OVC022/// 10/08 Q1007 W (270°) 32.2mph 10°C 8°C
13/01/19 03:20 EGPL 130320Z AUTO 27027KT 9999 SCT006/// BKN011/// OVC016/// 10/09 Q1007 W (270°) 31.1mph 10°C 9°C
13/01/19 02:50 EGPL 130250Z AUTO 27024KT 8000 -RA BKN005/// OVC009/// 10/09 Q1007 -RA W (270°) 27.6mph 10°C 9°C
13/01/19 02:20 EGPL 130220Z AUTO 27025KT 6000 OVC005/// 10/09 Q1008 W (270°) 28.8mph 10°C 9°C
13/01/19 01:50 EGPL 130150Z AUTO 27027KT 6000 OVC005/// 10/09 Q1008 W (270°) 31.1mph 10°C 9°C
13/01/19 01:20 EGPL 130120Z AUTO 27026KT 5000 BR OVC004/// 10/09 Q1008 BR W (270°) 29.9mph 10°C 9°C